sensor_id;sensor_type;location;lat;lon;timestamp;P1;durP1;ratioP1;P2;durP2;ratioP2
54515;SDS011;40422;45.892;4.738;2023-09-18T03:02:01;3.70;;;1.23;;
54515;SDS011;40422;45.892;4.738;2023-09-18T03:04:29;3.90;;;1.30;;
54515;SDS011;40422;45.892;4.738;2023-09-18T03:06:56;5.00;;;1.67;;
54515;SDS011;40422;45.892;4.738;2023-09-18T03:09:21;5.68;;;1.60;;
54515;SDS011;40422;45.892;4.738;2023-09-18T03:11:47;3.00;;;1.13;;
54515;SDS011;40422;45.892;4.738;2023-09-18T03:14:13;4.30;;;1.42;;
54515;SDS011;40422;45.892;4.738;2023-09-18T03:16:38;6.45;;;1.50;;
54515;SDS011;40422;45.892;4.738;2023-09-18T03:19:04;4.25;;;1.20;;
54515;SDS011;40422;45.892;4.738;2023-09-18T03:21:30;5.00;;;2.00;;
54515;SDS011;40422;45.892;4.738;2023-09-18T03:23:58;5.72;;;1.40;;
54515;SDS011;40422;45.892;4.738;2023-09-18T03:26:24;5.40;;;1.80;;
54515;SDS011;40422;45.892;4.738;2023-09-18T03:28:50;3.80;;;1.48;;
54515;SDS011;40422;45.892;4.738;2023-09-18T03:31:15;5.88;;;1.63;;
54515;SDS011;40422;45.892;4.738;2023-09-18T03:33:41;7.55;;;1.63;;
54515;SDS011;40422;45.892;4.738;2023-09-18T03:36:06;7.47;;;1.55;;
54515;SDS011;40422;45.892;4.738;2023-09-18T03:38:33;6.53;;;1.45;;
54515;SDS011;40422;45.892;4.738;2023-09-18T03:41:00;5.30;;;1.55;;
54515;SDS011;40422;45.892;4.738;2023-09-18T03:43:26;4.13;;;1.20;;
54515;SDS011;40422;45.892;4.738;2023-09-18T03:45:52;3.50;;;1.40;;
54515;SDS011;40422;45.892;4.738;2023-09-18T03:48:17;7.38;;;1.73;;
54515;SDS011;40422;45.892;4.738;2023-09-18T03:50:43;4.55;;;1.92;;
54515;SDS011;40422;45.892;4.738;2023-09-18T03:53:09;6.05;;;1.83;;
54515;SDS011;40422;45.892;4.738;2023-09-18T03:55:35;6.18;;;1.80;;
54515;SDS011;40422;45.892;4.738;2023-09-18T03:58:00;4.68;;;1.70;;
54515;SDS011;40422;45.892;4.738;2023-09-18T04:00:26;3.85;;;1.58;;
54515;SDS011;40422;45.892;4.738;2023-09-18T04:02:52;6.15;;;1.70;;
54515;SDS011;40422;45.892;4.738;2023-09-18T04:05:17;5.05;;;1.90;;
54515;SDS011;40422;45.892;4.738;2023-09-18T04:07:43;4.53;;;1.70;;
54515;SDS011;40422;45.892;4.738;2023-09-18T04:10:11;6.90;;;1.75;;
54515;SDS011;40422;45.892;4.738;2023-09-18T04:12:47;6.90;;;1.45;;
54515;SDS011;40422;45.892;4.738;2023-09-18T04:15:15;5.18;;;1.50;;
54515;SDS011;40422;45.892;4.738;2023-09-18T04:17:43;4.93;;;1.40;;
54515;SDS011;40422;45.892;4.738;2023-09-18T04:20:09;3.17;;;1.33;;
54515;SDS011;40422;45.892;4.738;2023-09-18T04:22:41;3.75;;;1.00;;
54515;SDS011;40422;45.892;4.738;2023-09-18T04:25:09;4.63;;;1.40;;
54515;SDS011;40422;45.892;4.738;2023-09-18T04:27:35;5.60;;;1.48;;
54515;SDS011;40422;45.892;4.738;2023-09-18T04:30:01;3.70;;;1.60;;
54515;SDS011;40422;45.892;4.738;2023-09-18T04:32:29;4.22;;;1.67;;
54515;SDS011;40422;45.892;4.738;2023-09-18T04:34:55;4.03;;;1.55;;
54515;SDS011;40422;45.892;4.738;2023-09-18T04:37:21;7.63;;;2.10;;
54515;SDS011;40422;45.892;4.738;2023-09-18T04:39:47;5.20;;;1.42;;
54515;SDS011;40422;45.892;4.738;2023-09-18T04:42:12;3.22;;;1.45;;
54515;SDS011;40422;45.892;4.738;2023-09-18T04:44:38;2.95;;;1.30;;
54515;SDS011;40422;45.892;4.738;2023-09-18T04:47:03;3.80;;;1.52;;
54515;SDS011;40422;45.892;4.738;2023-09-18T04:49:29;5.03;;;1.73;;
54515;SDS011;40422;45.892;4.738;2023-09-18T04:51:55;5.88;;;1.52;;
54515;SDS011;40422;45.892;4.738;2023-09-18T04:54:20;6.82;;;1.42;;
54515;SDS011;40422;45.892;4.738;2023-09-18T04:56:46;6.10;;;1.60;;
54515;SDS011;40422;45.892;4.738;2023-09-18T04:59:12;5.07;;;1.50;;
54515;SDS011;40422;45.892;4.738;2023-09-18T05:01:38;2.63;;;1.27;;
54515;SDS011;40422;45.892;4.738;2023-09-18T05:04:03;5.82;;;1.70;;
54515;SDS011;40422;45.892;4.738;2023-09-18T05:06:29;5.75;;;1.80;;
54515;SDS011;40422;45.892;4.738;2023-09-18T05:08:55;4.15;;;1.60;;
54515;SDS011;40422;45.892;4.738;2023-09-18T05:11:20;3.72;;;1.40;;
54515;SDS011;40422;45.892;4.738;2023-09-18T05:13:46;3.95;;;1.58;;
54515;SDS011;40422;45.892;4.738;2023-09-18T05:16:12;4.07;;;1.50;;
54515;SDS011;40422;45.892;4.738;2023-09-18T05:18:41;3.83;;;1.80;;
54515;SDS011;40422;45.892;4.738;2023-09-18T05:21:07;5.47;;;1.70;;
54515;SDS011;40422;45.892;4.738;2023-09-18T05:23:34;6.35;;;1.70;;
54515;SDS011;40422;45.892;4.738;2023-09-18T05:26:00;6.75;;;2.20;;
54515;SDS011;40422;45.892;4.738;2023-09-18T05:28:26;6.57;;;1.90;;
54515;SDS011;40422;45.892;4.738;2023-09-18T05:30:51;4.57;;;1.52;;
54515;SDS011;40422;45.892;4.738;2023-09-18T05:33:17;4.25;;;1.45;;
54515;SDS011;40422;45.892;4.738;2023-09-18T05:35:45;4.88;;;1.80;;
54515;SDS011;40422;45.892;4.738;2023-09-18T05:38:11;5.90;;;1.85;;
54515;SDS011;40422;45.892;4.738;2023-09-18T05:40:42;3.42;;;1.38;;
54515;SDS011;40422;45.892;4.738;2023-09-18T05:43:09;4.90;;;1.50;;
54515;SDS011;40422;45.892;4.738;2023-09-18T05:45:37;4.75;;;1.50;;
54515;SDS011;40422;45.892;4.738;2023-09-18T05:48:03;6.78;;;1.83;;
54515;SDS011;40422;45.892;4.738;2023-09-18T05:50:32;3.78;;;1.52;;
54515;SDS011;40422;45.892;4.738;2023-09-18T05:53:00;6.40;;;2.00;;
54515;SDS011;40422;45.892;4.738;2023-09-18T05:55:29;4.65;;;1.65;;
54515;SDS011;40422;45.892;4.738;2023-09-18T05:57:57;5.70;;;1.83;;
54515;SDS011;40422;45.892;4.738;2023-09-18T06:00:23;4.75;;;1.77;;
54515;SDS011;40422;45.892;4.738;2023-09-18T06:02:49;4.97;;;1.73;;
54515;SDS011;40422;45.892;4.738;2023-09-18T06:05:16;5.53;;;1.80;;
54515;SDS011;40422;45.892;4.738;2023-09-18T06:07:46;4.05;;;1.80;;
54515;SDS011;40422;45.892;4.738;2023-09-18T06:10:12;4.57;;;1.50;;
54515;SDS011;40422;45.892;4.738;2023-09-18T06:12:39;10.13;;;2.00;;
54515;SDS011;40422;45.892;4.738;2023-09-18T06:15:06;8.27;;;2.72;;
54515;SDS011;40422;45.892;4.738;2023-09-18T06:17:35;6.00;;;1.85;;
54515;SDS011;40422;45.892;4.738;2023-09-18T06:20:03;5.10;;;1.67;;
54515;SDS011;40422;45.892;4.738;2023-09-18T06:22:29;7.10;;;2.30;;
54515;SDS011;40422;45.892;4.738;2023-09-18T06:24:55;5.82;;;1.85;;
54515;SDS011;40422;45.892;4.738;2023-09-18T06:27:20;4.10;;;1.67;;
54515;SDS011;40422;45.892;4.738;2023-09-18T06:29:46;5.88;;;1.90;;
54515;SDS011;40422;45.892;4.738;2023-09-18T06:32:12;5.85;;;1.88;;
54515;SDS011;40422;45.892;4.738;2023-09-18T06:34:37;12.82;;;2.33;;
54515;SDS011;40422;45.892;4.738;2023-09-18T06:37:03;8.80;;;1.83;;
54515;SDS011;40422;45.892;4.738;2023-09-18T06:39:32;6.97;;;1.83;;
54515;SDS011;40422;45.892;4.738;2023-09-18T06:41:58;7.85;;;2.10;;
54515;SDS011;40422;45.892;4.738;2023-09-18T06:44:23;7.70;;;1.90;;
54515;SDS011;40422;45.892;4.738;2023-09-18T06:46:49;6.72;;;2.05;;
54515;SDS011;40422;45.892;4.738;2023-09-18T06:49:14;5.13;;;1.95;;
54515;SDS011;40422;45.892;4.738;2023-09-18T06:51:40;6.88;;;1.98;;
54515;SDS011;40422;45.892;4.738;2023-09-18T06:54:06;7.82;;;2.22;;
54515;SDS011;40422;45.892;4.738;2023-09-18T06:56:31;5.45;;;2.10;;
54515;SDS011;40422;45.892;4.738;2023-09-18T06:58:57;3.78;;;1.65;;
54515;SDS011;40422;45.892;4.738;2023-09-18T07:01:23;5.68;;;2.20;;
54515;SDS011;40422;45.892;4.738;2023-09-18T07:03:51;6.32;;;1.95;;
54515;SDS011;40422;45.892;4.738;2023-09-18T07:06:16;6.13;;;1.77;;
54515;SDS011;40422;45.892;4.738;2023-09-18T07:08:45;5.32;;;1.60;;
54515;SDS011;40422;45.892;4.738;2023-09-18T07:11:12;3.70;;;1.52;;
54515;SDS011;40422;45.892;4.738;2023-09-18T07:13:38;5.25;;;2.20;;
54515;SDS011;40422;45.892;4.738;2023-09-18T07:16:03;4.00;;;1.65;;
54515;SDS011;40422;45.892;4.738;2023-09-18T07:18:30;4.78;;;1.92;;
54515;SDS011;40422;45.892;4.738;2023-09-18T07:20:56;4.50;;;1.85;;
54515;SDS011;40422;45.892;4.738;2023-09-18T07:23:21;4.25;;;1.67;;
54515;SDS011;40422;45.892;4.738;2023-09-18T07:25:47;4.85;;;1.92;;
54515;SDS011;40422;45.892;4.738;2023-09-18T07:28:13;5.78;;;1.95;;
54515;SDS011;40422;45.892;4.738;2023-09-18T07:30:42;6.80;;;2.10;;
54515;SDS011;40422;45.892;4.738;2023-09-18T07:33:11;4.53;;;1.75;;
54515;SDS011;40422;45.892;4.738;2023-09-18T07:35:40;7.85;;;1.92;;
54515;SDS011;40422;45.892;4.738;2023-09-18T07:38:05;4.82;;;1.60;;
54515;SDS011;40422;45.892;4.738;2023-09-18T07:40:31;6.53;;;1.90;;
54515;SDS011;40422;45.892;4.738;2023-09-18T07:42:57;5.22;;;1.95;;
54515;SDS011;40422;45.892;4.738;2023-09-18T07:45:23;6.70;;;1.92;;
54515;SDS011;40422;45.892;4.738;2023-09-18T07:47:49;4.25;;;1.83;;
54515;SDS011;40422;45.892;4.738;2023-09-18T07:50:14;4.35;;;1.77;;
54515;SDS011;40422;45.892;4.738;2023-09-18T07:52:40;3.67;;;1.65;;
54515;SDS011;40422;45.892;4.738;2023-09-18T07:55:06;4.28;;;1.50;;
54515;SDS011;40422;45.892;4.738;2023-09-18T07:57:32;5.75;;;2.22;;
54515;SDS011;40422;45.892;4.738;2023-09-18T07:59:59;4.63;;;1.83;;
54515;SDS011;40422;45.892;4.738;2023-09-18T08:02:31;5.28;;;2.08;;
54515;SDS011;40422;45.892;4.738;2023-09-18T08:04:58;3.70;;;1.70;;
54515;SDS011;40422;45.892;4.738;2023-09-18T08:07:23;5.18;;;1.90;;
54515;SDS011;40422;45.892;4.738;2023-09-18T08:09:50;3.28;;;1.77;;
54515;SDS011;40422;45.892;4.738;2023-09-18T08:12:16;5.82;;;1.95;;
54515;SDS011;40422;45.892;4.738;2023-09-18T08:14:41;3.53;;;1.55;;
54515;SDS011;40422;45.892;4.738;2023-09-18T08:17:07;4.15;;;1.65;;
54515;SDS011;40422;45.892;4.738;2023-09-18T08:19:33;4.13;;;1.50;;
54515;SDS011;40422;45.892;4.738;2023-09-18T08:22:01;5.70;;;1.90;;
54515;SDS011;40422;45.892;4.738;2023-09-18T08:24:28;7.60;;;2.60;;
54515;SDS011;40422;45.892;4.738;2023-09-18T08:26:54;5.15;;;2.25;;
54515;SDS011;40422;45.892;4.738;2023-09-18T08:29:21;3.70;;;1.90;;
54515;SDS011;40422;45.892;4.738;2023-09-18T08:31:47;4.80;;;2.10;;
54515;SDS011;40422;45.892;4.738;2023-09-18T08:34:14;5.50;;;1.90;;
54515;SDS011;40422;45.892;4.738;2023-09-18T08:36:40;5.13;;;2.00;;
54515;SDS011;40422;45.892;4.738;2023-09-18T08:39:05;4.80;;;2.10;;
54515;SDS011;40422;45.892;4.738;2023-09-18T08:41:33;4.72;;;2.20;;
54515;SDS011;40422;45.892;4.738;2023-09-18T08:44:04;9.77;;;4.93;;
54515;SDS011;40422;45.892;4.738;2023-09-18T08:46:34;5.95;;;2.60;;
54515;SDS011;40422;45.892;4.738;2023-09-18T08:49:01;5.65;;;2.42;;
54515;SDS011;40422;45.892;4.738;2023-09-18T08:51:27;5.82;;;2.10;;
54515;SDS011;40422;45.892;4.738;2023-09-18T08:53:54;6.05;;;2.20;;
54515;SDS011;40422;45.892;4.738;2023-09-18T08:56:22;5.22;;;1.95;;
54515;SDS011;40422;45.892;4.738;2023-09-18T08:58:48;5.90;;;2.40;;
54515;SDS011;40422;45.892;4.738;2023-09-18T09:01:14;4.53;;;2.20;;
54515;SDS011;40422;45.892;4.738;2023-09-18T09:03:41;5.72;;;2.38;;
54515;SDS011;40422;45.892;4.738;2023-09-18T09:06:08;5.38;;;2.45;;
54515;SDS011;40422;45.892;4.738;2023-09-18T09:08:35;6.40;;;2.00;;
54515;SDS011;40422;45.892;4.738;2023-09-18T09:11:01;5.53;;;2.05;;
54515;SDS011;40422;45.892;4.738;2023-09-18T09:13:27;4.25;;;2.00;;
54515;SDS011;40422;45.892;4.738;2023-09-18T09:15:54;4.70;;;2.10;;
54515;SDS011;40422;45.892;4.738;2023-09-18T09:18:22;4.80;;;2.17;;
54515;SDS011;40422;45.892;4.738;2023-09-18T09:20:54;5.15;;;2.65;;
54515;SDS011;40422;45.892;4.738;2023-09-18T09:23:28;8.27;;;3.10;;
54515;SDS011;40422;45.892;4.738;2023-09-18T09:26:11;4.97;;;2.67;;
54515;SDS011;40422;45.892;4.738;2023-09-18T09:28:38;6.03;;;2.95;;
54515;SDS011;40422;45.892;4.738;2023-09-18T09:31:04;8.90;;;3.47;;
54515;SDS011;40422;45.892;4.738;2023-09-18T09:33:30;8.85;;;4.22;;
54515;SDS011;40422;45.892;4.738;2023-09-18T09:35:56;8.13;;;3.05;;
54515;SDS011;40422;45.892;4.738;2023-09-18T09:38:28;7.80;;;3.85;;
54515;SDS011;40422;45.892;4.738;2023-09-18T09:40:58;7.18;;;2.97;;
54515;SDS011;40422;45.892;4.738;2023-09-18T09:43:25;6.80;;;3.10;;
54515;SDS011;40422;45.892;4.738;2023-09-18T09:45:56;8.23;;;3.13;;
54515;SDS011;40422;45.892;4.738;2023-09-18T09:48:23;7.55;;;3.95;;
54515;SDS011;40422;45.892;4.738;2023-09-18T09:50:58;6.90;;;3.00;;
54515;SDS011;40422;45.892;4.738;2023-09-18T09:53:44;7.25;;;3.17;;
54515;SDS011;40422;45.892;4.738;2023-09-18T09:56:12;5.60;;;2.60;;
54515;SDS011;40422;45.892;4.738;2023-09-18T09:58:38;5.95;;;2.90;;
54515;SDS011;40422;45.892;4.738;2023-09-18T10:01:09;8.95;;;2.85;;
54515;SDS011;40422;45.892;4.738;2023-09-18T10:03:43;5.80;;;2.70;;
54515;SDS011;40422;45.892;4.738;2023-09-18T10:06:10;6.00;;;2.75;;
54515;SDS011;40422;45.892;4.738;2023-09-18T10:08:39;6.43;;;2.50;;
54515;SDS011;40422;45.892;4.738;2023-09-18T10:11:06;5.15;;;2.42;;
54515;SDS011;40422;45.892;4.738;2023-09-18T10:16:06;6.85;;;2.60;;
54515;SDS011;40422;45.892;4.738;2023-09-18T10:18:42;7.75;;;2.78;;
54515;SDS011;40422;45.892;4.738;2023-09-18T10:24:17;5.80;;;2.42;;
54515;SDS011;40422;45.892;4.738;2023-09-18T10:26:53;6.63;;;2.70;;
54515;SDS011;40422;45.892;4.738;2023-09-18T10:29:25;7.57;;;3.17;;
54515;SDS011;40422;45.892;4.738;2023-09-18T10:31:51;8.18;;;3.15;;
54515;SDS011;40422;45.892;4.738;2023-09-18T10:34:21;7.35;;;3.28;;
54515;SDS011;40422;45.892;4.738;2023-09-18T10:36:51;7.55;;;3.13;;
54515;SDS011;40422;45.892;4.738;2023-09-18T10:39:18;7.22;;;2.92;;
54515;SDS011;40422;45.892;4.738;2023-09-18T10:41:48;6.90;;;2.80;;
54515;SDS011;40422;45.892;4.738;2023-09-18T10:44:16;5.88;;;2.58;;
54515;SDS011;40422;45.892;4.738;2023-09-18T10:46:44;6.00;;;2.38;;
54515;SDS011;40422;45.892;4.738;2023-09-18T10:49:11;5.07;;;2.67;;
54515;SDS011;40422;45.892;4.738;2023-09-18T10:51:37;6.88;;;2.53;;
54515;SDS011;40422;45.892;4.738;2023-09-18T10:54:07;6.38;;;2.78;;
54515;SDS011;40422;45.892;4.738;2023-09-18T10:56:33;6.80;;;2.70;;
54515;SDS011;40422;45.892;4.738;2023-09-18T10:58:59;6.88;;;2.70;;
54515;SDS011;40422;45.892;4.738;2023-09-18T11:01:27;4.43;;;2.03;;
54515;SDS011;40422;45.892;4.738;2023-09-18T11:03:57;8.50;;;2.67;;
54515;SDS011;40422;45.892;4.738;2023-09-18T11:06:25;6.45;;;2.40;;
54515;SDS011;40422;45.892;4.738;2023-09-18T11:09:00;5.25;;;2.33;;
54515;SDS011;40422;45.892;4.738;2023-09-18T11:11:29;6.85;;;2.72;;
54515;SDS011;40422;45.892;4.738;2023-09-18T11:13:58;7.65;;;2.83;;
54515;SDS011;40422;45.892;4.738;2023-09-18T11:21:26;7.38;;;2.00;;
54515;SDS011;40422;45.892;4.738;2023-09-18T11:26:35;8.38;;;2.80;;
54515;SDS011;40422;45.892;4.738;2023-09-18T11:29:01;5.88;;;2.70;;
54515;SDS011;40422;45.892;4.738;2023-09-18T11:36:47;4.30;;;1.80;;
54515;SDS011;40422;45.892;4.738;2023-09-18T11:39:13;4.60;;;2.30;;
54515;SDS011;40422;45.892;4.738;2023-09-18T11:42:06;7.05;;;2.13;;
54515;SDS011;40422;45.892;4.738;2023-09-18T11:44:36;7.88;;;2.53;;
54515;SDS011;40422;45.892;4.738;2023-09-18T11:47:12;7.22;;;2.80;;
54515;SDS011;40422;45.892;4.738;2023-09-18T11:49:49;7.07;;;2.75;;
54515;SDS011;40422;45.892;4.738;2023-09-18T11:52:19;5.70;;;2.70;;
54515;SDS011;40422;45.892;4.738;2023-09-18T11:54:46;6.68;;;2.60;;
54515;SDS011;40422;45.892;4.738;2023-09-18T11:57:12;5.90;;;2.42;;
54515;SDS011;40422;45.892;4.738;2023-09-18T11:59:41;5.78;;;2.40;;
54515;SDS011;40422;45.892;4.738;2023-09-18T12:02:08;5.80;;;2.42;;
54515;SDS011;40422;45.892;4.738;2023-09-18T12:04:35;4.82;;;2.03;;
54515;SDS011;40422;45.892;4.738;2023-09-18T12:07:01;3.85;;;2.03;;
54515;SDS011;40422;45.892;4.738;2023-09-18T12:09:30;4.25;;;2.22;;
54515;SDS011;40422;45.892;4.738;2023-09-18T12:11:57;3.88;;;2.20;;
54515;SDS011;40422;45.892;4.738;2023-09-18T12:14:30;5.28;;;2.30;;
54515;SDS011;40422;45.892;4.738;2023-09-18T12:16:57;5.22;;;2.10;;
54515;SDS011;40422;45.892;4.738;2023-09-18T12:19:24;7.05;;;2.10;;
54515;SDS011;40422;45.892;4.738;2023-09-18T12:21:50;5.55;;;2.20;;
54515;SDS011;40422;45.892;4.738;2023-09-18T12:24:23;4.63;;;2.10;;
54515;SDS011;40422;45.892;4.738;2023-09-18T12:26:49;6.10;;;2.23;;
54515;SDS011;40422;45.892;4.738;2023-09-18T12:29:16;6.22;;;2.45;;
54515;SDS011;40422;45.892;4.738;2023-09-18T12:31:42;5.60;;;2.30;;
54515;SDS011;40422;45.892;4.738;2023-09-18T12:34:17;5.50;;;2.25;;
54515;SDS011;40422;45.892;4.738;2023-09-18T12:36:43;5.82;;;2.65;;
54515;SDS011;40422;45.892;4.738;2023-09-18T12:39:12;7.82;;;2.42;;
54515;SDS011;40422;45.892;4.738;2023-09-18T12:41:41;2.92;;;1.70;;
54515;SDS011;40422;45.892;4.738;2023-09-18T12:44:09;7.00;;;2.15;;
54515;SDS011;40422;45.892;4.738;2023-09-18T12:46:35;4.80;;;2.25;;
54515;SDS011;40422;45.892;4.738;2023-09-18T12:49:20;4.20;;;2.17;;
54515;SDS011;40422;45.892;4.738;2023-09-18T12:51:55;5.30;;;2.22;;
54515;SDS011;40422;45.892;4.738;2023-09-18T12:54:35;5.45;;;2.42;;
54515;SDS011;40422;45.892;4.738;2023-09-18T12:57:05;5.22;;;1.83;;
54515;SDS011;40422;45.892;4.738;2023-09-18T12:59:32;4.80;;;2.08;;
54515;SDS011;40422;45.892;4.738;2023-09-18T13:01:58;4.40;;;1.90;;
54515;SDS011;40422;45.892;4.738;2023-09-18T13:04:24;5.20;;;1.85;;
54515;SDS011;40422;45.892;4.738;2023-09-18T13:07:05;4.85;;;2.00;;
54515;SDS011;40422;45.892;4.738;2023-09-18T13:09:33;4.43;;;1.80;;
54515;SDS011;40422;45.892;4.738;2023-09-18T13:12:00;3.72;;;1.90;;
54515;SDS011;40422;45.892;4.738;2023-09-18T13:14:26;4.45;;;2.10;;
54515;SDS011;40422;45.892;4.738;2023-09-18T13:16:52;4.07;;;1.80;;
54515;SDS011;40422;45.892;4.738;2023-09-18T13:19:18;4.85;;;2.00;;
54515;SDS011;40422;45.892;4.738;2023-09-18T13:21:47;3.88;;;1.70;;
54515;SDS011;40422;45.892;4.738;2023-09-18T13:24:26;3.90;;;1.65;;
54515;SDS011;40422;45.892;4.738;2023-09-18T13:26:53;4.85;;;1.60;;
54515;SDS011;40422;45.892;4.738;2023-09-18T13:29:20;4.97;;;1.80;;
54515;SDS011;40422;45.892;4.738;2023-09-18T13:31:46;4.55;;;1.40;;
54515;SDS011;40422;45.892;4.738;2023-09-18T13:34:11;3.67;;;1.67;;
54515;SDS011;40422;45.892;4.738;2023-09-18T13:36:37;11.63;;;3.65;;
54515;SDS011;40422;45.892;4.738;2023-09-18T13:39:03;6.13;;;1.85;;
54515;SDS011;40422;45.892;4.738;2023-09-18T13:41:29;3.10;;;1.65;;
54515;SDS011;40422;45.892;4.738;2023-09-18T13:43:56;6.55;;;2.17;;
54515;SDS011;40422;45.892;4.738;2023-09-18T13:46:22;4.63;;;1.63;;
54515;SDS011;40422;45.892;4.738;2023-09-18T13:48:48;3.70;;;1.67;;
54515;SDS011;40422;45.892;4.738;2023-09-18T13:51:14;4.63;;;1.63;;
54515;SDS011;40422;45.892;4.738;2023-09-18T13:53:40;4.68;;;1.50;;
54515;SDS011;40422;45.892;4.738;2023-09-18T13:56:06;3.90;;;1.70;;
54515;SDS011;40422;45.892;4.738;2023-09-18T13:58:32;4.95;;;1.30;;
54515;SDS011;40422;45.892;4.738;2023-09-18T14:00:58;3.15;;;1.33;;
54515;SDS011;40422;45.892;4.738;2023-09-18T14:03:24;5.18;;;1.35;;
54515;SDS011;40422;45.892;4.738;2023-09-18T14:05:50;4.95;;;1.52;;
54515;SDS011;40422;45.892;4.738;2023-09-18T14:08:17;3.30;;;1.40;;
54515;SDS011;40422;45.892;4.738;2023-09-18T14:10:43;4.82;;;1.52;;
54515;SDS011;40422;45.892;4.738;2023-09-18T14:13:09;5.22;;;1.60;;
54515;SDS011;40422;45.892;4.738;2023-09-18T14:15:35;3.22;;;1.38;;
54515;SDS011;40422;45.892;4.738;2023-09-18T14:18:02;6.10;;;1.88;;
54515;SDS011;40422;45.892;4.738;2023-09-18T14:20:28;9.23;;;3.25;;
54515;SDS011;40422;45.892;4.738;2023-09-18T14:22:54;6.15;;;2.40;;
54515;SDS011;40422;45.892;4.738;2023-09-18T14:25:20;4.57;;;1.48;;
54515;SDS011;40422;45.892;4.738;2023-09-18T14:27:47;4.53;;;1.50;;
54515;SDS011;40422;45.892;4.738;2023-09-18T14:30:13;3.38;;;1.45;;
54515;SDS011;40422;45.892;4.738;2023-09-18T14:32:39;4.45;;;1.50;;
54515;SDS011;40422;45.892;4.738;2023-09-18T14:35:05;3.08;;;1.30;;
54515;SDS011;40422;45.892;4.738;2023-09-18T14:37:33;4.10;;;1.42;;
54515;SDS011;40422;45.892;4.738;2023-09-18T14:39:59;5.50;;;1.60;;
54515;SDS011;40422;45.892;4.738;2023-09-18T14:42:24;4.18;;;1.60;;
54515;SDS011;40422;45.892;4.738;2023-09-18T14:44:50;4.72;;;1.65;;
54515;SDS011;40422;45.892;4.738;2023-09-18T14:47:16;7.32;;;1.38;;
54515;SDS011;40422;45.892;4.738;2023-09-18T14:49:41;5.28;;;1.65;;
54515;SDS011;40422;45.892;4.738;2023-09-18T14:52:11;3.38;;;1.65;;
54515;SDS011;40422;45.892;4.738;2023-09-18T14:54:38;4.43;;;1.67;;
54515;SDS011;40422;45.892;4.738;2023-09-18T14:57:05;4.15;;;1.73;;
54515;SDS011;40422;45.892;4.738;2023-09-18T14:59:31;4.70;;;1.60;;
54515;SDS011;40422;45.892;4.738;2023-09-18T15:01:56;3.28;;;1.50;;
54515;SDS011;40422;45.892;4.738;2023-09-18T15:04:22;6.55;;;1.60;;
54515;SDS011;40422;45.892;4.738;2023-09-18T15:06:48;3.97;;;1.70;;
54515;SDS011;40422;45.892;4.738;2023-09-18T15:09:13;4.60;;;1.83;;
54515;SDS011;40422;45.892;4.738;2023-09-18T15:11:39;4.93;;;1.95;;
54515;SDS011;40422;45.892;4.738;2023-09-18T15:14:05;3.72;;;1.60;;
54515;SDS011;40422;45.892;4.738;2023-09-18T15:16:30;5.53;;;1.63;;
54515;SDS011;40422;45.892;4.738;2023-09-18T15:18:56;3.38;;;1.60;;
54515;SDS011;40422;45.892;4.738;2023-09-18T15:21:27;4.55;;;1.70;;
54515;SDS011;40422;45.892;4.738;2023-09-18T15:23:52;4.53;;;1.60;;
54515;SDS011;40422;45.892;4.738;2023-09-18T15:26:18;3.35;;;1.52;;
54515;SDS011;40422;45.892;4.738;2023-09-18T15:28:44;5.30;;;1.65;;
54515;SDS011;40422;45.892;4.738;2023-09-18T15:31:09;6.22;;;2.00;;
54515;SDS011;40422;45.892;4.738;2023-09-18T15:33:35;2.83;;;1.70;;
54515;SDS011;40422;45.892;4.738;2023-09-18T15:36:00;4.43;;;1.70;;
54515;SDS011;40422;45.892;4.738;2023-09-18T15:38:27;3.20;;;1.60;;
54515;SDS011;40422;45.892;4.738;2023-09-18T15:40:54;4.75;;;1.80;;
54515;SDS011;40422;45.892;4.738;2023-09-18T15:43:20;4.25;;;1.75;;
54515;SDS011;40422;45.892;4.738;2023-09-18T15:45:47;3.90;;;1.73;;
54515;SDS011;40422;45.892;4.738;2023-09-18T15:48:12;4.63;;;1.90;;
54515;SDS011;40422;45.892;4.738;2023-09-18T15:50:38;6.38;;;2.20;;
54515;SDS011;40422;45.892;4.738;2023-09-18T15:53:04;4.30;;;2.05;;
54515;SDS011;40422;45.892;4.738;2023-09-18T15:55:30;6.35;;;2.42;;
54515;SDS011;40422;45.892;4.738;2023-09-18T15:57:55;5.68;;;2.40;;
54515;SDS011;40422;45.892;4.738;2023-09-18T16:00:21;5.32;;;2.40;;
54515;SDS011;40422;45.892;4.738;2023-09-18T16:02:46;7.40;;;2.97;;
54515;SDS011;40422;45.892;4.738;2023-09-18T16:05:15;5.25;;;1.98;;
54515;SDS011;40422;45.892;4.738;2023-09-18T16:07:43;5.68;;;2.40;;
54515;SDS011;40422;45.892;4.738;2023-09-18T16:10:10;4.88;;;2.38;;
54515;SDS011;40422;45.892;4.738;2023-09-18T16:12:36;5.10;;;2.70;;
54515;SDS011;40422;45.892;4.738;2023-09-18T16:15:02;5.25;;;2.40;;
54515;SDS011;40422;45.892;4.738;2023-09-18T16:17:29;6.80;;;2.30;;
54515;SDS011;40422;45.892;4.738;2023-09-18T16:19:55;6.22;;;2.28;;
54515;SDS011;40422;45.892;4.738;2023-09-18T16:22:20;3.38;;;1.90;;
54515;SDS011;40422;45.892;4.738;2023-09-18T16:24:46;4.20;;;1.92;;
54515;SDS011;40422;45.892;4.738;2023-09-18T16:27:12;5.38;;;2.13;;
54515;SDS011;40422;45.892;4.738;2023-09-18T16:29:38;7.15;;;2.05;;
54515;SDS011;40422;45.892;4.738;2023-09-18T16:32:05;3.88;;;1.90;;
54515;SDS011;40422;45.892;4.738;2023-09-18T16:34:34;5.00;;;2.13;;
54515;SDS011;40422;45.892;4.738;2023-09-18T16:37:00;6.53;;;2.40;;
54515;SDS011;40422;45.892;4.738;2023-09-18T16:39:26;3.92;;;2.00;;
54515;SDS011;40422;45.892;4.738;2023-09-18T16:41:52;4.95;;;2.20;;
54515;SDS011;40422;45.892;4.738;2023-09-18T16:44:18;6.38;;;2.50;;
54515;SDS011;40422;45.892;4.738;2023-09-18T16:46:44;7.38;;;2.25;;
54515;SDS011;40422;45.892;4.738;2023-09-18T16:49:10;5.63;;;2.08;;
54515;SDS011;40422;45.892;4.738;2023-09-18T16:51:39;4.15;;;1.90;;
54515;SDS011;40422;45.892;4.738;2023-09-18T16:54:05;4.47;;;1.80;;
54515;SDS011;40422;45.892;4.738;2023-09-18T16:56:31;6.28;;;2.05;;
54515;SDS011;40422;45.892;4.738;2023-09-18T16:58:58;6.35;;;1.88;;
54515;SDS011;40422;45.892;4.738;2023-09-18T17:01:24;5.25;;;2.00;;
54515;SDS011;40422;45.892;4.738;2023-09-18T17:03:50;9.57;;;2.15;;
54515;SDS011;40422;45.892;4.738;2023-09-18T17:06:15;4.18;;;2.10;;
54515;SDS011;40422;45.892;4.738;2023-09-18T17:08:43;4.03;;;1.98;;
54515;SDS011;40422;45.892;4.738;2023-09-18T17:11:09;4.57;;;2.00;;
54515;SDS011;40422;45.892;4.738;2023-09-18T17:13:34;4.00;;;1.90;;
54515;SDS011;40422;45.892;4.738;2023-09-18T17:16:00;4.22;;;2.03;;
54515;SDS011;40422;45.892;4.738;2023-09-18T17:18:25;4.63;;;2.15;;
54515;SDS011;40422;45.892;4.738;2023-09-18T17:20:51;6.57;;;2.30;;
54515;SDS011;40422;45.892;4.738;2023-09-18T17:23:17;5.43;;;2.50;;
54515;SDS011;40422;45.892;4.738;2023-09-18T17:25:43;5.78;;;2.53;;
54515;SDS011;40422;45.892;4.738;2023-09-18T17:28:09;5.10;;;2.08;;
54515;SDS011;40422;45.892;4.738;2023-09-18T17:30:35;4.78;;;2.45;;
54515;SDS011;40422;45.892;4.738;2023-09-18T17:33:01;7.43;;;2.80;;
54515;SDS011;40422;45.892;4.738;2023-09-18T17:35:29;8.65;;;2.47;;
54515;SDS011;40422;45.892;4.738;2023-09-18T17:37:55;4.70;;;2.25;;
54515;SDS011;40422;45.892;4.738;2023-09-18T17:40:20;7.43;;;2.63;;
54515;SDS011;40422;45.892;4.738;2023-09-18T17:42:46;7.47;;;2.90;;
54515;SDS011;40422;45.892;4.738;2023-09-18T17:45:12;4.85;;;2.50;;
54515;SDS011;40422;45.892;4.738;2023-09-18T17:47:37;5.30;;;2.25;;
54515;SDS011;40422;45.892;4.738;2023-09-18T17:50:04;4.93;;;2.47;;
54515;SDS011;40422;45.892;4.738;2023-09-18T17:52:31;5.32;;;2.65;;
54515;SDS011;40422;45.892;4.738;2023-09-18T17:54:58;6.68;;;2.97;;
54515;SDS011;40422;45.892;4.738;2023-09-18T17:57:26;6.47;;;2.75;;
54515;SDS011;40422;45.892;4.738;2023-09-18T17:59:52;4.72;;;2.60;;
54515;SDS011;40422;45.892;4.738;2023-09-18T18:02:18;5.53;;;2.58;;
54515;SDS011;40422;45.892;4.738;2023-09-18T18:04:43;6.30;;;2.95;;
54515;SDS011;40422;45.892;4.738;2023-09-18T18:07:09;4.35;;;2.47;;